Time;durP1;ratioP1;P1;durP2;ratioP2;P2;SDS_P1;SDS_P2;PMS_P1;PMS_P2;Temp;Humidity;BMP_temperature;BMP_pressure;BME280_temperature;BME280_humidity;BME280_pressure;Samples;Min_cycle;Max_cycle;Signal;HPM_P1;HPM_P2
2021/08/28 00:01:45;;;;;;;15.70;5.28;;;15.20;99.90;;;;;;4919401;28;38688;-77
2021/08/28 00:04:11;;;;;;;13.30;4.20;;;15.20;99.90;;;;;;4924535;28;38062;-77
2021/08/28 00:06:37;;;;;;;15.75;4.03;;;15.20;99.90;;;;;;4917724;28;36764;-77
2021/08/28 00:09:06;;;;;;;13.35;4.38;;;15.20;99.90;;;;;;4898178;29;37882;-77
2021/08/28 00:11:32;;;;;;;17.30;4.55;;;15.10;99.90;;;;;;4915065;28;39333;-77
2021/08/28 00:13:58;;;;;;;13.60;4.63;;;15.10;99.90;;;;;;4898896;28;38671;-78
2021/08/28 00:16:24;;;;;;;17.92;4.97;;;15.10;99.90;;;;;;4893844;28;38075;-77
2021/08/28 00:18:50;;;;;;;15.93;4.45;;;15.10;99.90;;;;;;4901519;28;34246;-77
2021/08/28 00:21:16;;;;;;;15.48;4.45;;;15.10;99.90;;;;;;4919056;28;38566;-77
2021/08/28 00:23:43;;;;;;;19.27;5.65;;;15.00;99.90;;;;;;4917659;28;38275;-77
2021/08/28 00:26:09;;;;;;;16.30;4.97;;;15.00;99.90;;;;;;4915960;28;36991;-76
2021/08/28 00:28:35;;;;;;;28.70;6.00;;;15.00;99.90;;;;;;4916654;28;35609;-77
2021/08/28 00:31:01;;;;;;;20.23;5.50;;;15.00;99.90;;;;;;4896529;29;38919;-77
2021/08/28 00:33:27;;;;;;;22.08;5.72;;;15.00;99.90;;;;;;4917090;28;46731;-77
2021/08/28 00:35:53;;;;;;;22.40;6.15;;;15.00;99.90;;;;;;4920927;28;37852;-77
2021/08/28 00:38:19;;;;;;;16.92;5.28;;;15.00;99.90;;;;;;4916401;28;37872;-77
2021/08/28 00:40:45;;;;;;;21.63;6.22;;;15.00;99.90;;;;;;4919458;28;41036;-78
2021/08/28 00:43:11;;;;;;;14.65;5.20;;;15.00;99.90;;;;;;4919023;28;37901;-77
2021/08/28 00:45:43;;;;;;;21.27;6.18;;;15.00;99.90;;;;;;4903896;29;40745;-77
2021/08/28 00:48:11;;;;;;;15.70;5.10;;;15.00;99.90;;;;;;4921469;28;35963;-77
2021/08/28 00:50:40;;;;;;;18.17;5.45;;;15.00;99.90;;;;;;4918693;28;39712;-77
2021/08/28 00:53:06;;;;;;;15.98;5.38;;;15.10;99.90;;;;;;4918913;28;39770;-77
2021/08/28 00:55:35;;;;;;;22.92;4.75;;;15.10;99.90;;;;;;4918986;28;39815;-78
2021/08/28 00:58:02;;;;;;;20.08;4.85;;;15.00;99.90;;;;;;4919349;28;37329;-77
2021/08/28 01:00:30;;;;;;;18.65;6.50;;;15.10;99.90;;;;;;4919046;28;48227;-77
2021/08/28 01:02:59;;;;;;;16.13;5.13;;;15.00;99.90;;;;;;4920890;28;37353;-77
2021/08/28 01:05:49;;;;;;;15.60;6.18;;;15.00;99.90;;;;;;4899262;28;39768;-77
2021/08/28 01:08:22;;;;;;;17.80;4.72;;;15.00;99.90;;;;;;4920086;28;38124;-77
2021/08/28 01:11:10;;;;;;;18.27;6.18;;;15.10;99.90;;;;;;4917404;28;40456;-77
2021/08/28 01:13:37;;;;;;;21.85;6.07;;;15.10;99.90;;;;;;4925294;28;46811;-76
2021/08/28 01:16:06;;;;;;;19.65;5.95;;;15.10;99.90;;;;;;4906361;28;39591;-77
2021/08/28 01:18:33;;;;;;;14.18;5.03;;;15.00;99.90;;;;;;4921478;28;35845;-77
2021/08/28 01:21:21;;;;;;;14.73;5.50;;;15.00;99.90;;;;;;4924865;28;38863;-77
2021/08/28 01:23:49;;;;;;;21.70;6.20;;;15.10;99.90;;;;;;4923257;28;48911;-77
2021/08/28 01:26:19;;;;;;;18.90;5.13;;;15.00;99.90;;;;;;4924335;28;39386;-77
2021/08/28 01:28:52;;;;;;;21.73;6.00;;;15.00;99.90;;;;;;4903750;29;38028;-77
2021/08/28 01:31:19;;;;;;;18.70;5.82;;;15.00;99.90;;;;;;4921016;28;38790;-77
2021/08/28 01:33:47;;;;;;;21.20;6.00;;;15.00;99.90;;;;;;4923396;29;38335;-77
2021/08/28 01:36:14;;;;;;;16.63;5.97;;;15.00;99.90;;;;;;4926907;28;37218;-77
2021/08/28 01:38:41;;;;;;;18.10;5.03;;;15.00;99.90;;;;;;4925791;28;37422;-76
2021/08/28 01:41:07;;;;;;;15.75;5.82;;;15.00;99.90;;;;;;4921800;28;40129;-76
2021/08/28 01:43:34;;;;;;;22.40;5.22;;;14.90;99.90;;;;;;4917750;28;38389;-76
2021/08/28 01:46:00;;;;;;;19.13;6.20;;;14.90;99.90;;;;;;4903004;28;39146;-76
2021/08/28 01:48:26;;;;;;;21.80;6.60;;;14.90;99.90;;;;;;4917282;28;36813;-76
2021/08/28 01:50:53;;;;;;;21.50;5.97;;;14.90;99.90;;;;;;4920601;28;38630;-76
2021/08/28 01:53:20;;;;;;;15.90;5.70;;;14.90;99.90;;;;;;4920370;28;38972;-76
2021/08/28 01:55:46;;;;;;;18.40;5.00;;;14.90;99.90;;;;;;4918261;28;39642;-76
2021/08/28 01:58:12;;;;;;;16.17;6.38;;;14.90;99.90;;;;;;4922170;28;37164;-77
2021/08/28 02:00:38;;;;;;;21.63;5.57;;;14.90;99.90;;;;;;4919502;28;38213;-76
2021/08/28 02:03:04;;;;;;;23.45;6.55;;;15.00;99.90;;;;;;4919782;28;38569;-76
2021/08/28 02:05:36;;;;;;;18.02;5.80;;;15.00;99.90;;;;;;4916110;28;37021;-76
2021/08/28 02:08:09;;;;;;;20.20;6.17;;;15.00;99.90;;;;;;4922766;28;38140;-76
2021/08/28 02:10:39;;;;;;;20.52;5.88;;;15.00;99.90;;;;;;4917881;28;38798;-77
2021/08/28 02:13:14;;;;;;;19.88;5.70;;;15.10;99.90;;;;;;4919045;28;38680;-77
2021/08/28 02:15:53;;;;;;;16.17;6.03;;;15.10;99.90;;;;;;4914517;28;38691;-77
2021/08/28 02:18:32;;;;;;;18.75;5.30;;;15.10;99.90;;;;;;4917132;28;38235;-77
2021/08/28 02:21:01;;;;;;;18.02;5.60;;;15.10;99.90;;;;;;4922033;28;39685;-77
2021/08/28 02:23:32;;;;;;;18.08;5.78;;;15.10;99.90;;;;;;4923999;28;48911;-77
2021/08/28 02:26:12;;;;;;;16.90;5.38;;;15.10;99.90;;;;;;4917952;28;39236;-77
2021/08/28 02:28:46;;;;;;;16.35;5.60;;;15.20;99.90;;;;;;4922646;28;48646;-77
2021/08/28 02:31:13;;;;;;;17.63;5.70;;;15.20;99.90;;;;;;4917096;28;39240;-77
2021/08/28 02:33:40;;;;;;;20.63;5.93;;;15.20;99.90;;;;;;4922127;28;38137;-77
2021/08/28 02:36:07;;;;;;;15.60;5.20;;;15.30;99.90;;;;;;4900994;28;38684;-77
2021/08/28 02:38:35;;;;;;;22.63;5.25;;;15.30;99.90;;;;;;4924204;29;37268;-77
2021/08/28 02:41:04;;;;;;;21.52;6.07;;;15.30;99.90;;;;;;4904202;29;40185;-77
2021/08/28 02:43:30;;;;;;;21.95;5.53;;;15.40;99.90;;;;;;4918557;29;45902;-77
2021/08/28 02:45:57;;;;;;;14.13;5.38;;;15.40;99.90;;;;;;4920973;28;39371;-77
2021/08/28 02:48:26;;;;;;;17.38;4.95;;;15.50;99.90;;;;;;4901555;29;37407;-76
2021/08/28 02:50:54;;;;;;;17.90;4.70;;;15.50;99.90;;;;;;4918783;28;39464;-77
2021/08/28 02:53:23;;;;;;;19.88;5.57;;;15.50;99.90;;;;;;4917916;28;38662;-77
2021/08/28 02:55:51;;;;;;;12.15;4.68;;;15.50;99.90;;;;;;4917610;28;39325;-76
2021/08/28 02:58:19;;;;;;;14.02;4.80;;;15.50;99.90;;;;;;4901501;29;38247;-77
2021/08/28 03:00:46;;;;;;;17.63;4.35;;;15.40;99.90;;;;;;4914947;28;40412;-77
2021/08/28 03:03:14;;;;;;;13.45;4.85;;;15.50;99.90;;;;;;4918234;28;38628;-77
2021/08/28 03:05:44;;;;;;;19.63;6.22;;;15.50;99.90;;;;;;4895939;29;37126;-77
2021/08/28 03:08:12;;;;;;;11.77;4.43;;;15.50;99.90;;;;;;4912123;28;38003;-77
2021/08/28 03:10:38;;;;;;;12.85;4.80;;;15.50;99.90;;;;;;4909208;28;38655;-76
2021/08/28 03:13:04;;;;;;;12.63;4.65;;;15.40;99.90;;;;;;4910645;28;37931;-76
2021/08/28 03:15:31;;;;;;;14.93;5.10;;;15.40;99.90;;;;;;4917213;28;38181;-77
2021/08/28 03:17:58;;;;;;;16.33;5.57;;;15.40;99.90;;;;;;4918070;28;35808;-77
2021/08/28 03:20:25;;;;;;;14.48;4.97;;;15.40;99.90;;;;;;4923867;28;38562;-77
2021/08/28 03:22:52;;;;;;;13.60;4.20;;;15.40;99.90;;;;;;4904029;28;37213;-76
2021/08/28 03:25:19;;;;;;;14.05;6.13;;;15.40;99.90;;;;;;4925416;29;39065;-76
2021/08/28 03:27:47;;;;;;;17.70;4.53;;;15.40;99.90;;;;;;4921205;28;37099;-77
2021/08/28 03:30:14;;;;;;;10.40;4.68;;;15.40;99.90;;;;;;4917874;28;38810;-76
2021/08/28 03:32:42;;;;;;;14.07;4.78;;;15.40;99.90;;;;;;4917036;28;38546;-78
2021/08/28 03:35:09;;;;;;;13.52;5.07;;;15.40;99.90;;;;;;4915953;28;39089;-77
2021/08/28 03:37:38;;;;;;;14.88;5.07;;;15.40;99.90;;;;;;4921474;28;37533;-77
2021/08/28 03:40:07;;;;;;;15.20;4.38;;;15.40;99.90;;;;;;4917736;28;39585;-76
2021/08/28 03:42:33;;;;;;;16.60;4.95;;;15.40;99.90;;;;;;4900674;28;47574;-77
2021/08/28 03:44:59;;;;;;;16.13;4.57;;;15.40;99.90;;;;;;4918855;28;37483;-76
2021/08/28 03:47:25;;;;;;;18.52;5.57;;;15.40;99.90;;;;;;4914798;28;35920;-76
2021/08/28 03:49:51;;;;;;;12.68;4.68;;;15.40;99.90;;;;;;4916286;28;39277;-76
2021/08/28 03:52:17;;;;;;;16.55;5.18;;;15.40;99.90;;;;;;4918261;28;38590;-76
2021/08/28 03:54:43;;;;;;;12.35;4.28;;;15.40;99.90;;;;;;4916348;28;38960;-76
2021/08/28 03:57:09;;;;;;;12.40;4.30;;;15.40;99.90;;;;;;4918486;28;37315;-76
2021/08/28 03:59:35;;;;;;;11.20;4.40;;;15.30;99.90;;;;;;4917311;29;40379;-76
2021/08/28 04:02:02;;;;;;;9.52;4.38;;;15.30;99.90;;;;;;4924288;28;38332;-74
2021/08/28 04:04:28;;;;;;;11.70;3.97;;;15.30;99.90;;;;;;4900878;28;38368;-76
2021/08/28 04:06:54;;;;;;;16.60;4.90;;;15.30;99.90;;;;;;4916332;28;36755;-76
2021/08/28 04:09:20;;;;;;;15.48;4.38;;;15.30;99.90;;;;;;4922331;29;38969;-76
2021/08/28 04:11:46;;;;;;;12.90;4.20;;;15.30;99.90;;;;;;4909698;28;38906;-76
2021/08/28 04:14:12;;;;;;;13.55;4.93;;;15.30;99.90;;;;;;4903424;29;38733;-76
2021/08/28 04:16:38;;;;;;;10.80;4.28;;;15.20;99.90;;;;;;4920847;28;37295;-76
2021/08/28 04:19:04;;;;;;;9.20;3.78;;;15.20;99.90;;;;;;4917828;28;37969;-75
2021/08/28 04:21:30;;;;;;;11.98;3.60;;;15.20;99.90;;;;;;4914968;28;38041;-76
2021/08/28 04:23:56;;;;;;;10.05;4.10;;;15.20;99.90;;;;;;4916818;28;39120;-76
2021/08/28 04:26:22;;;;;;;12.20;4.47;;;15.20;99.90;;;;;;4918145;28;37884;-76
2021/08/28 04:28:48;;;;;;;13.05;4.20;;;15.20;99.90;;;;;;4921980;28;39436;-76
2021/08/28 04:31:14;;;;;;;10.38;4.00;;;15.20;99.90;;;;;;4901416;28;39944;-76
2021/08/28 04:33:40;;;;;;;12.48;3.90;;;15.30;99.90;;;;;;4917450;28;38335;-76
2021/08/28 04:36:06;;;;;;;13.93;4.85;;;15.30;99.90;;;;;;4918264;28;38428;-76
2021/08/28 04:38:32;;;;;;;11.00;4.63;;;15.40;99.90;;;;;;4922683;28;39565;-76
2021/08/28 04:40:58;;;;;;;12.65;4.90;;;15.40;99.90;;;;;;4913722;28;38327;-76
2021/08/28 04:43:25;;;;;;;14.88;5.45;;;15.50;99.90;;;;;;4898612;29;38403;-76
2021/08/28 04:45:51;;;;;;;12.80;4.60;;;15.50;99.90;;;;;;4919023;28;38217;-78
2021/08/28 04:48:17;;;;;;;15.43;4.88;;;15.60;99.90;;;;;;4921619;28;38867;-78
2021/08/28 04:50:43;;;;;;;9.63;4.68;;;15.60;99.90;;;;;;4917966;29;38429;-78
2021/08/28 04:53:09;;;;;;;16.42;5.88;;;15.70;99.90;;;;;;4922218;28;38256;-78
2021/08/28 04:55:35;;;;;;;15.23;5.00;;;15.70;99.90;;;;;;4915413;28;37171;-76
2021/08/28 04:58:01;;;;;;;17.38;5.85;;;15.80;99.90;;;;;;4919718;28;39462;-77
2021/08/28 05:00:27;;;;;;;14.13;4.40;;;15.80;99.90;;;;;;4915946;28;48775;-77
2021/08/28 05:02:53;;;;;;;14.40;5.20;;;15.80;99.90;;;;;;4914815;28;37828;-78
2021/08/28 05:05:19;;;;;;;14.45;4.72;;;15.80;99.90;;;;;;4902228;28;36091;-77
2021/08/28 05:07:45;;;;;;;11.15;4.97;;;15.90;99.90;;;;;;4917119;28;39305;-77
2021/08/28 05:10:11;;;;;;;19.58;5.20;;;15.90;99.90;;;;;;4915083;28;38200;-78
2021/08/28 05:12:37;;;;;;;17.55;5.25;;;15.90;99.90;;;;;;4902108;28;37172;-78
2021/08/28 05:15:04;;;;;;;15.10;5.00;;;15.90;99.90;;;;;;4915660;28;35778;-77
2021/08/28 05:17:30;;;;;;;13.48;4.63;;;15.90;99.90;;;;;;4914252;28;46971;-78
2021/08/28 05:19:56;;;;;;;13.00;5.05;;;15.80;99.90;;;;;;4916948;28;37539;-79
2021/08/28 05:22:22;;;;;;;15.88;5.93;;;15.80;99.90;;;;;;4917212;28;38303;-78
2021/08/28 05:24:48;;;;;;;15.32;5.55;;;15.80;99.90;;;;;;4918914;28;37382;-78
2021/08/28 05:27:14;;;;;;;13.85;4.85;;;15.80;99.90;;;;;;4922847;28;38776;-78
2021/08/28 05:29:40;;;;;;;12.80;5.10;;;15.80;99.90;;;;;;4924174;28;38142;-78
2021/08/28 05:32:08;;;;;;;9.60;4.93;;;15.80;99.90;;;;;;4916859;28;38455;-77
2021/08/28 05:34:35;;;;;;;13.00;5.05;;;15.80;99.90;;;;;;4917581;28;37401;-78
2021/08/28 05:37:01;;;;;;;18.35;5.15;;;15.80;99.90;;;;;;4913986;28;39214;-75
2021/08/28 05:39:27;;;;;;;16.67;5.20;;;15.80;99.90;;;;;;4913254;28;38651;-77
2021/08/28 05:41:53;;;;;;;11.98;4.80;;;15.80;99.90;;;;;;4919424;28;38239;-76
2021/08/28 05:44:19;;;;;;;15.15;4.80;;;15.80;99.90;;;;;;4917418;28;37026;-77
2021/08/28 05:46:45;;;;;;;19.38;4.72;;;15.70;99.90;;;;;;4917561;28;38474;-77
2021/08/28 05:49:11;;;;;;;13.15;4.60;;;15.70;99.90;;;;;;4919221;28;37302;-77
2021/08/28 05:51:37;;;;;;;10.73;4.30;;;15.80;99.90;;;;;;4900463;28;39399;-77
2021/08/28 05:54:03;;;;;;;12.15;5.10;;;15.70;99.90;;;;;;4898939;29;36253;-77
2021/08/28 05:56:29;;;;;;;14.95;4.90;;;15.80;99.90;;;;;;4918287;28;38966;-77
2021/08/28 05:58:55;;;;;;;13.98;5.30;;;15.80;99.90;;;;;;4915718;28;38495;-76
2021/08/28 06:01:21;;;;;;;11.52;4.85;;;15.90;99.90;;;;;;4914315;28;40283;-77
2021/08/28 06:03:48;;;;;;;11.57;5.05;;;15.90;99.90;;;;;;4921255;28;35661;-77
2021/08/28 06:06:14;;;;;;;13.38;4.97;;;16.00;99.90;;;;;;4895781;28;39450;-77
2021/08/28 06:08:40;;;;;;;14.77;5.30;;;16.00;99.90;;;;;;4900850;28;37066;-77
2021/08/28 06:11:06;;;;;;;11.43;4.20;;;16.00;99.90;;;;;;4915534;28;38283;-77
2021/08/28 06:13:32;;;;;;;12.98;4.63;;;16.10;99.90;;;;;;4900391;28;37898;-77
2021/08/28 06:15:58;;;;;;;13.52;4.75;;;16.20;99.90;;;;;;4919402;28;38919;-77
2021/08/28 06:18:24;;;;;;;11.15;4.47;;;16.20;99.90;;;;;;4903933;28;39028;-77
2021/08/28 06:20:50;;;;;;;8.43;3.70;;;16.30;99.90;;;;;;4914359;28;38280;-77
2021/08/28 06:23:17;;;;;;;15.50;4.47;;;16.30;99.90;;;;;;4919937;28;37140;-77
2021/08/28 06:25:43;;;;;;;12.00;4.82;;;16.40;99.90;;;;;;4901128;29;39591;-77
2021/08/28 06:28:09;;;;;;;8.63;3.42;;;16.50;99.90;;;;;;4917440;28;38437;-77
2021/08/28 06:30:35;;;;;;;12.10;4.10;;;16.60;99.90;;;;;;4915809;28;37935;-77
2021/08/28 06:33:01;;;;;;;11.20;3.72;;;16.70;99.90;;;;;;4915589;28;37761;-75
2021/08/28 06:35:27;;;;;;;9.93;4.20;;;16.80;99.90;;;;;;4898615;28;37696;-77
2021/08/28 06:37:53;;;;;;;14.63;3.75;;;16.80;99.90;;;;;;4920138;28;38541;-77
2021/08/28 06:40:19;;;;;;;12.43;3.97;;;16.70;99.90;;;;;;4916272;28;37454;-77
2021/08/28 06:42:46;;;;;;;9.52;3.63;;;16.70;99.90;;;;;;4915647;28;37505;-77
2021/08/28 06:45:12;;;;;;;16.13;4.65;;;16.60;99.90;;;;;;4914364;28;38372;-76
2021/08/28 06:47:38;;;;;;;10.32;4.00;;;16.60;99.90;;;;;;4914319;28;38525;-77
2021/08/28 06:50:04;;;;;;;12.23;3.75;;;16.70;99.90;;;;;;4915488;28;37908;-77
2021/08/28 06:52:31;;;;;;;9.02;3.75;;;16.70;99.90;;;;;;4917555;28;36883;-77
2021/08/28 06:54:57;;;;;;;15.45;4.25;;;16.80;99.90;;;;;;4896271;28;39201;-77
2021/08/28 06:57:23;;;;;;;10.75;3.90;;;16.90;99.90;;;;;;4916642;28;38516;-77
2021/08/28 06:59:49;;;;;;;10.20;3.88;;;17.00;99.90;;;;;;4923184;29;38077;-78
2021/08/28 07:02:15;;;;;;;10.00;3.70;;;17.10;99.90;;;;;;4916410;29;37782;-77
2021/08/28 07:04:41;;;;;;;8.10;3.42;;;17.10;99.90;;;;;;4906081;29;40397;-77
2021/08/28 07:07:07;;;;;;;12.30;3.70;;;17.00;99.90;;;;;;4900570;29;38655;-77
2021/08/28 07:09:33;;;;;;;10.40;3.65;;;17.10;99.90;;;;;;4920776;28;39365;-77
2021/08/28 07:11:59;;;;;;;8.82;4.00;;;17.20;99.90;;;;;;4922708;28;37638;-76
2021/08/28 07:14:25;;;;;;;7.47;3.85;;;17.40;99.90;;;;;;4925619;28;39539;-76
2021/08/28 07:16:51;;;;;;;8.57;3.95;;;17.50;99.90;;;;;;4907591;28;38733;-76
2021/08/28 07:19:17;;;;;;;10.30;3.40;;;17.70;99.90;;;;;;4924596;29;37920;-77
2021/08/28 07:21:44;;;;;;;12.48;3.50;;;18.00;99.90;;;;;;4920502;29;37074;-77
2021/08/28 07:24:10;;;;;;;9.82;3.58;;;18.10;99.90;;;;;;4909386;29;37600;-76
2021/08/28 07:26:36;;;;;;;10.90;3.40;;;18.30;99.90;;;;;;4926154;28;39434;-77
2021/08/28 07:29:02;;;;;;;8.80;3.08;;;18.50;99.90;;;;;;4922129;29;39908;-78
2021/08/28 07:31:28;;;;;;;10.90;3.67;;;18.60;99.90;;;;;;4929806;28;37779;-76
2021/08/28 07:33:54;;;;;;;9.38;3.20;;;18.50;99.90;;;;;;4927426;29;39613;-75
2021/08/28 07:36:20;;;;;;;7.95;3.25;;;18.30;99.90;;;;;;4927129;28;39351;-77
2021/08/28 07:38:46;;;;;;;8.73;3.08;;;18.30;99.90;;;;;;4912673;29;36946;-77
2021/08/28 07:41:12;;;;;;;7.72;3.05;;;18.40;99.90;;;;;;4918702;28;37707;-77
2021/08/28 07:43:39;;;;;;;7.60;2.90;;;18.40;99.90;;;;;;4910083;29;40636;-77
2021/08/28 07:46:05;;;;;;;9.82;2.90;;;18.50;99.90;;;;;;4922485;28;36452;-77
2021/08/28 07:48:31;;;;;;;6.55;2.50;;;18.60;99.90;;;;;;4927461;29;38066;-78
2021/08/28 07:50:57;;;;;;;8.18;3.05;;;18.70;99.90;;;;;;4926014;28;37449;-77
2021/08/28 07:53:23;;;;;;;7.00;2.47;;;18.80;99.90;;;;;;4924686;29;38788;-77
2021/08/28 07:55:49;;;;;;;8.27;3.33;;;18.80;99.90;;;;;;4906769;29;38617;-78
2021/08/28 07:58:16;;;;;;;6.38;2.45;;;18.80;99.90;;;;;;4911165;29;38769;-76
2021/08/28 08:00:42;;;;;;;9.82;3.00;;;19.00;99.90;;;;;;4921377;28;37004;-77
2021/08/28 08:03:08;;;;;;;8.70;3.08;;;19.10;99.90;;;;;;4909707;29;39262;-77
2021/08/28 08:05:34;;;;;;;8.75;2.85;;;19.00;99.90;;;;;;4923271;29;36908;-78
2021/08/28 08:08:00;;;;;;;10.00;3.20;;;19.00;99.90;;;;;;4906885;29;37752;-78
2021/08/28 08:10:26;;;;;;;8.05;2.83;;;19.00;99.90;;;;;;4924163;29;37158;-80
2021/08/28 08:12:53;;;;;;;7.90;3.20;;;19.00;99.90;;;;;;4906804;29;39490;-77
2021/08/28 08:15:19;;;;;;;12.90;3.45;;;19.10;99.90;;;;;;4903235;29;37774;-76
2021/08/28 08:17:45;;;;;;;7.50;2.90;;;19.30;99.90;;;;;;4929683;28;38304;-78
2021/08/28 08:20:12;;;;;;;8.27;3.05;;;19.30;99.90;;;;;;4903438;29;38194;-77
2021/08/28 08:22:38;;;;;;;11.90;3.28;;;19.30;99.90;;;;;;4928022;29;39813;-78
2021/08/28 08:25:05;;;;;;;12.73;3.65;;;19.20;99.90;;;;;;4923373;28;38434;-77
2021/08/28 08:27:31;;;;;;;10.25;3.22;;;19.00;99.90;;;;;;4917694;29;48537;-76
2021/08/28 08:29:57;;;;;;;8.18;3.28;;;19.00;99.90;;;;;;4924230;29;36751;-77
2021/08/28 08:32:23;;;;;;;8.18;3.08;;;19.40;99.90;;;;;;4920945;28;39766;-77
2021/08/28 08:34:49;;;;;;;11.10;3.75;;;19.60;99.90;;;;;;4927272;28;38729;-77
2021/08/28 08:37:15;;;;;;;8.48;3.05;;;19.60;99.90;;;;;;4907731;28;38582;-76
2021/08/28 08:39:42;;;;;;;9.13;3.65;;;19.60;99.90;;;;;;4911458;29;37542;-77
2021/08/28 08:42:11;;;;;;;8.25;2.88;;;19.90;99.90;;;;;;4909963;29;37555;-78
2021/08/28 08:44:40;;;;;;;8.50;3.30;;;20.10;99.90;;;;;;4928067;28;39855;-77
2021/08/28 08:47:07;;;;;;;8.15;3.72;;;20.50;99.90;;;;;;4910041;29;39414;-77
2021/08/28 08:49:33;;;;;;;7.55;3.50;;;20.70;99.90;;;;;;4926693;28;36725;-77
2021/08/28 08:52:00;;;;;;;8.48;3.30;;;20.40;99.90;;;;;;4917131;29;37814;-79
2021/08/28 08:54:27;;;;;;;9.20;3.55;;;20.20;99.90;;;;;;4912819;29;47036;-80
2021/08/28 08:56:53;;;;;;;6.00;3.08;;;20.10;99.90;;;;;;4928845;29;38268;-77
2021/08/28 08:59:20;;;;;;;9.20;3.03;;;20.00;99.90;;;;;;4926544;29;36852;-79
2021/08/28 09:01:46;;;;;;;6.95;3.65;;;20.00;99.90;;;;;;4913867;28;39333;-78
2021/08/28 09:04:12;;;;;;;9.82;3.58;;;19.80;99.90;;;;;;4913875;29;40136;-80
2021/08/28 09:06:39;;;;;;;11.48;4.25;;;19.20;99.90;;;;;;4927111;28;37925;-79
2021/08/28 09:09:05;;;;;;;8.98;3.67;;;18.80;99.90;;;;;;4912926;29;37423;-79
2021/08/28 09:11:31;;;;;;;12.43;4.53;;;18.30;99.90;;;;;;4927468;28;40120;-78
2021/08/28 09:14:20;;;;;;;10.52;4.30;;;18.00;99.90;;;;;;4911482;29;40037;-78
2021/08/28 09:16:47;;;;;;;9.70;3.40;;;17.90;99.90;;;;;;4924753;29;48365;-77
2021/08/28 09:19:13;;;;;;;9.38;3.88;;;17.70;99.90;;;;;;4912932;29;38403;-77
2021/08/28 09:21:40;;;;;;;12.55;4.30;;;17.60;99.90;;;;;;4922053;28;40623;-77
2021/08/28 09:24:11;;;;;;;8.75;3.70;;;17.60;99.90;;;;;;4923880;28;39110;-80
2021/08/28 09:26:40;;;;;;;8.27;4.10;;;17.50;99.90;;;;;;4921572;28;39112;-80
2021/08/28 09:29:09;;;;;;;7.05;3.88;;;17.60;99.90;;;;;;4925469;28;37068;-77
2021/08/28 09:31:41;;;;;;;5.70;3.40;;;17.60;99.90;;;;;;4922388;29;38787;-77
2021/08/28 09:34:21;;;;;;;8.45;3.80;;;17.80;99.90;;;;;;4928418;29;38623;-77
2021/08/28 09:37:05;;;;;;;10.02;4.07;;;17.80;99.90;;;;;;4929080;29;39125;-78
2021/08/28 09:39:45;;;;;;;9.00;3.42;;;18.20;99.90;;;;;;4926278;29;48946;-77
2021/08/28 09:42:19;;;;;;;9.23;3.78;;;18.80;99.90;;;;;;4927886;28;38890;-76
2021/08/28 09:44:47;;;;;;;8.73;3.08;;;19.20;99.90;;;;;;4927495;28;38302;-77
2021/08/28 09:47:14;;;;;;;6.50;3.60;;;19.60;99.90;;;;;;4927165;28;38700;-74
2021/08/28 09:49:46;;;;;;;6.28;3.90;;;19.60;99.90;;;;;;4912489;29;37734;-75
2021/08/28 09:52:14;;;;;;;8.20;3.30;;;19.70;99.90;;;;;;4925782;28;39600;-78
2021/08/28 09:54:41;;;;;;;4.20;2.80;;;19.90;99.90;;;;;;4910592;29;39457;-77
2021/08/28 09:57:08;;;;;;;7.57;3.42;;;20.20;99.90;;;;;;4925460;28;37881;-77
2021/08/28 09:59:35;;;;;;;9.95;3.83;;;19.90;99.90;;;;;;4928133;28;37358;-78
2021/08/28 10:02:06;;;;;;;7.97;3.45;;;19.60;99.90;;;;;;4912071;29;39849;-77
2021/08/28 10:04:49;;;;;;;8.13;4.10;;;19.40;99.90;;;;;;4925839;28;47247;-78
2021/08/28 10:07:20;;;;;;;7.90;3.45;;;19.30;99.90;;;;;;4925461;28;38287;-78
2021/08/28 10:09:47;;;;;;;7.88;3.17;;;19.30;99.90;;;;;;4927807;29;36903;-77
2021/08/28 10:12:17;;;;;;;5.82;3.17;;;19.30;99.90;;;;;;4921973;28;39359;-77
2021/08/28 10:14:44;;;;;;;8.73;3.88;;;19.60;99.90;;;;;;4928751;29;40764;-78
2021/08/28 10:17:11;;;;;;;10.43;3.17;;;19.70;99.90;;;;;;4924564;28;37017;-79
2021/08/28 10:19:37;;;;;;;4.80;3.67;;;19.80;99.90;;;;;;4911604;29;37689;-77
2021/08/28 10:22:04;;;;;;;7.75;3.28;;;19.70;99.90;;;;;;4908053;29;39653;-77
2021/08/28 10:24:30;;;;;;;7.22;3.10;;;19.70;99.90;;;;;;4911036;29;41998;-77
2021/08/28 10:26:56;;;;;;;6.80;3.20;;;19.80;99.90;;;;;;4925870;29;37896;-76
2021/08/28 10:29:23;;;;;;;9.07;3.83;;;19.70;99.90;;;;;;4925158;28;37976;-78
2021/08/28 10:31:50;;;;;;;8.40;3.13;;;20.00;99.90;;;;;;4927460;29;38758;-78
2021/08/28 10:34:16;;;;;;;5.95;3.33;;;20.60;99.90;;;;;;4923803;28;39156;-78
2021/08/28 10:36:44;;;;;;;5.15;3.10;;;21.00;99.90;;;;;;4926099;28;38909;-81
2021/08/28 10:39:10;;;;;;;8.98;3.50;;;21.00;99.90;;;;;;4920407;29;38274;-77
2021/08/28 10:41:37;;;;;;;5.82;3.25;;;20.70;99.90;;;;;;4924594;29;39634;-78
2021/08/28 10:44:04;;;;;;;6.93;3.45;;;20.50;99.90;;;;;;4924932;29;38615;-77
2021/08/28 10:46:31;;;;;;;6.68;3.58;;;20.30;99.90;;;;;;4926890;28;37712;-79
2021/08/28 10:48:59;;;;;;;5.95;3.30;;;20.10;99.90;;;;;;4911200;29;37665;-78
2021/08/28 10:51:30;;;;;;;5.40;3.25;;;19.80;99.90;;;;;;4930035;28;38723;-79
2021/08/28 10:54:01;;;;;;;6.82;3.60;;;19.70;99.90;;;;;;4926889;29;38390;-77
2021/08/28 10:56:40;;;;;;;9.40;5.10;;;19.90;99.90;;;;;;4927009;28;49085;-76
2021/08/28 10:59:26;;;;;;;7.13;2.88;;;20.50;99.90;;;;;;4923662;29;37298;-79
2021/08/28 11:02:13;;;;;;;10.30;3.30;;;21.10;99.90;;;;;;4902886;29;39593;-78
2021/08/28 11:04:44;;;;;;;5.28;3.30;;;21.60;99.90;;;;;;4926970;29;48900;-76
2021/08/28 11:07:15;;;;;;;7.55;3.50;;;22.20;99.90;;;;;;4907710;29;40000;-77
2021/08/28 11:10:00;;;;;;;5.10;3.25;;;22.60;99.90;;;;;;4922230;29;37440;-77
2021/08/28 11:12:26;;;;;;;5.43;2.95;;;22.70;99.90;;;;;;4922764;28;38717;-78
2021/08/28 11:14:52;;;;;;;7.45;3.28;;;22.80;99.90;;;;;;4927908;29;39447;-77
2021/08/28 11:17:36;;;;;;;6.50;2.72;;;23.00;99.90;;;;;;4923536;29;39138;-77
2021/08/28 11:20:03;;;;;;;8.43;3.38;;;23.20;99.90;;;;;;4924175;29;37050;-77
2021/08/28 11:22:36;;;;;;;6.90;3.60;;;23.10;99.90;;;;;;4925732;28;39557;-78
2021/08/28 11:25:05;;;;;;;7.75;3.35;;;22.60;99.90;;;;;;4924088;28;38663;-78
2021/08/28 11:27:43;;;;;;;7.38;3.47;;;21.80;99.90;;;;;;4922465;29;48991;-77
2021/08/28 11:30:10;;;;;;;7.30;3.15;;;21.30;99.90;;;;;;4924078;28;37204;-77
2021/08/28 11:32:36;;;;;;;8.85;2.83;;;21.10;99.90;;;;;;4927967;29;38950;-78
2021/08/28 11:35:03;;;;;;;5.78;3.20;;;20.80;99.90;;;;;;4926450;28;38439;-78
2021/08/28 11:37:29;;;;;;;8.98;3.05;;;20.80;99.90;;;;;;4923437;28;49033;-77
2021/08/28 11:39:58;;;;;;;10.27;3.28;;;20.50;99.90;;;;;;4916414;29;38528;-77
2021/08/28 11:42:25;;;;;;;5.97;3.13;;;20.20;99.90;;;;;;4928366;28;38964;-78
2021/08/28 11:44:54;;;;;;;7.80;3.15;;;20.30;99.90;;;;;;4918986;29;38381;-78
2021/08/28 11:47:21;;;;;;;6.82;2.72;;;20.50;99.90;;;;;;4923646;28;37996;-78
2021/08/28 11:49:52;;;;;;;6.07;3.25;;;21.30;99.90;;;;;;4923492;29;38636;-78
2021/08/28 11:52:18;;;;;;;5.40;2.60;;;21.70;99.90;;;;;;4917476;28;39786;-78
2021/08/28 11:54:46;;;;;;;5.88;3.05;;;21.70;99.90;;;;;;4925420;29;39580;-78
2021/08/28 11:57:13;;;;;;;5.13;3.17;;;21.60;99.90;;;;;;4912183;28;37284;-78
2021/08/28 11:59:40;;;;;;;6.53;2.95;;;21.40;99.90;;;;;;4925326;28;36752;-78
2021/08/28 12:02:07;;;;;;;6.30;2.65;;;21.70;99.90;;;;;;4921119;29;38903;-79
2021/08/28 12:04:35;;;;;;;4.82;2.38;;;22.30;99.90;;;;;;4927578;29;38677;-80
2021/08/28 12:07:04;;;;;;;5.13;2.67;;;22.60;99.90;;;;;;4920121;29;38791;-78
2021/08/28 12:09:31;;;;;;;6.82;2.70;;;22.50;99.90;;;;;;4921401;29;37008;-79
2021/08/28 12:11:58;;;;;;;6.03;2.75;;;22.40;99.90;;;;;;4926890;28;39856;-80
2021/08/28 12:14:29;;;;;;;8.23;3.33;;;22.10;99.90;;;;;;4928184;28;39946;-78
2021/08/28 12:16:56;;;;;;;5.80;2.80;;;21.70;99.90;;;;;;4929945;29;37894;-77
2021/08/28 12:19:24;;;;;;;9.18;3.10;;;21.50;99.90;;;;;;4924969;28;38822;-78
2021/08/28 12:21:59;;;;;;;5.43;3.00;;;21.20;99.90;;;;;;4924556;28;38498;-81
2021/08/28 12:24:30;;;;;;;7.78;2.50;;;21.30;99.90;;;;;;4908399;29;39062;-79
2021/08/28 12:27:01;;;;;;;8.85;3.45;;;21.70;99.90;;;;;;4908952;29;36504;-78
2021/08/28 12:29:27;;;;;;;6.97;2.65;;;22.10;99.90;;;;;;4909801;29;47493;-78
2021/08/28 12:32:20;;;;;;;4.72;2.50;;;22.50;99.90;;;;;;4931230;28;39492;-78
2021/08/28 12:34:49;;;;;;;4.97;2.38;;;22.90;99.90;;;;;;4930012;28;48838;-78
2021/08/28 12:37:18;;;;;;;7.32;2.53;;;22.80;99.90;;;;;;4927809;28;38606;-79
2021/08/28 12:39:47;;;;;;;4.47;2.53;;;22.70;99.90;;;;;;4932190;28;37218;-79
2021/08/28 12:42:16;;;;;;;5.00;2.58;;;22.30;99.90;;;;;;4931789;28;38520;-80
2021/08/28 12:44:46;;;;;;;6.30;3.00;;;21.90;99.90;;;;;;4927988;29;38820;-77